• Join FlightAware (Why Join?)
  • Login
  • US Flag GB Flag 
09:28 EDT


 

Airport Tracker/Info


-or-


 

Live Flight TrackerFlight Track Log ✈ CTL78 ✈ 24-May-2013 ✈ KPTK - KMBS

Flight Track Log - Related Links

Times and Time Zones

All times are in EDT time to prevent confusion due to time zone crossing. See the CTL78 flight status page for this flight to view local times or setup timezone preferences in your user account.

Time Position Orientation Groundspeed Altitude Reporting Facility
EDT Latitude Longitude Course Direction KTS MPH feet Rate Location/Type
15:55 42.6622 -83.4492 268° West 121 139 1,600  Level Cleveland Center
15:55 42.6614 -83.4772 268° West 132 152 2,100 960 Climbing Cleveland Center
15:57 42.6913 -83.4451 38° Northeast  Level FlightAware Approximate
16:04 42.9244 -83.3935 321° Northwest  Level FlightAware Approximate
16:05 42.9518 -83.4236 321° Northwest  Level FlightAware Approximate
16:06 42.9792 -83.4538 321° Northwest  Level FlightAware Approximate
16:07 43.0066 -83.4840 321° Northwest  Level FlightAware Approximate
16:08 43.0340 -83.5142 321° Northwest  Level FlightAware Approximate
16:09 43.0614 -83.5444 321° Northwest  Level FlightAware Approximate
16:10 43.0887 -83.5747 321° Northwest  Level FlightAware Approximate
16:11 43.1161 -83.6050 321° Northwest  Level FlightAware Approximate
16:12 43.1435 -83.6353 321° Northwest  Level FlightAware Approximate
16:13 43.1708 -83.6657 321° Northwest  Level FlightAware Approximate
16:14 43.1981 -83.6961 321° Northwest  Level FlightAware Approximate
16:15 43.2251 -83.7270 318° Northwest  Level FlightAware Approximate
16:16 43.2514 -83.7590 318° Northwest  Level FlightAware Approximate
16:17 43.2777 -83.7912 318° Northwest  Level FlightAware Approximate
16:18 43.3040 -83.8233 318° Northwest  Level FlightAware Approximate
16:19 43.3303 -83.8554 318° Northwest  Level FlightAware Approximate
16:20 43.3566 -83.8876 318° Northwest  Level FlightAware Approximate
16:21 43.3842 -83.9175 324° Northwest  Level FlightAware Approximate
16:22 43.4127 -83.9459 324° Northwest  Level FlightAware Approximate
16:23 43.4411 -83.9744 324° Northwest  Level FlightAware Approximate
16:24 43.4696 -84.0029 324° Northwest  Level FlightAware Approximate
16:25 43.4980 -84.0314 324° Northwest  Level FlightAware Approximate
16:26 43.5167 -84.0667 305° West  Level FlightAware Approximate